LIMP METAR and TAF | Updated Today

LIMP METAR

Parma Airport

Observation time: 23 min. ago

LIMP 060850Z 28007KT 5000 BR NSC 02/01 Q1010

Need help? Read our tutorial on how to read METARs or read the parsed version below.

Parma Airport (LIMP) METAR

  • Weather conditions on Mon, 06 Dec 2021 08:50:00 +0000 (23 min. ago):
  • Present conditions: Mist
  • Clouds: No significant clouds are observed
  • Visibility: 5000 meters
  • Wind: 280 degrees at 7 knots
  • Temperature: 2 celsius
  • Dew point: 1 celsius
  • Pressure: 1010 millibars
  • Remarks: None


Useful to know...

LIMP TAF

Parma Airport

TAF LIMP 061400Z 0507/0606 VRB05KT 2000 BR BKN020 TEMPO 0522/0606 1400 BCFG
Observation time: -287 min. ago
Need help? Read our tutorial on how to read TAFs or read the parsed version below.

Parsed version of TAF for Parma Airport (LIMP)

  • From 05 December at 07:00 UTC, to day 06 of the month at 06:00 UTC
  • Clouds: Broken sky at 610 meters
  • Visibility: 2000 meters
  • Wind: Variable at 5
  • Other: Mist
  • Expected to arise temporarily, from 05 December at 22:00 UTC, to day 06 of the month at 06:00 UTC
  • Visibility: 1400 meters
  • Other: Patches of fog